Time;durP1;ratioP1;P1;durP2;ratioP2;P2;SDS_P1;SDS_P2;PMS_P1;PMS_P2;Temp;Humidity;BMP_temperature;BMP_pressure;BME280_temperature;BME280_humidity;BME280_pressure;Samples;Min_cycle;Max_cycle;Signal;HPM_P1;HPM_P2
2022/12/01 00:00:56;;;;;;;25.60;17.50;;;;;;;3.67;100.00;98639.00;5094337;28;20249;-70
2022/12/01 00:03:23;;;;;;;23.03;16.93;;;;;;;3.92;100.00;98646.75;5094384;28;20226;-70
2022/12/01 00:05:59;;;;;;;26.80;18.23;;;;;;;3.76;100.00;98648.53;5094039;28;20214;-70
2022/12/01 00:08:25;;;;;;;26.33;18.27;;;;;;;3.70;100.00;98646.56;5094107;28;20219;-71
2022/12/01 00:10:51;;;;;;;25.37;17.77;;;;;;;3.69;100.00;98640.47;5094286;28;20230;-70
2022/12/01 00:13:18;;;;;;;25.77;18.00;;;;;;;3.76;100.00;98640.66;5094308;28;20200;-70
2022/12/01 00:15:44;;;;;;;24.70;18.03;;;;;;;3.68;100.00;98635.38;5094209;28;20206;-70
2022/12/01 00:18:10;;;;;;;24.10;17.00;;;;;;;3.79;100.00;98648.22;5094222;28;20203;-70
2022/12/01 00:20:38;;;;;;;25.87;18.47;;;;;;;3.71;100.00;98643.75;5094087;28;20246;-70
2022/12/01 00:23:05;;;;;;;27.10;18.77;;;;;;;3.82;100.00;98638.19;5094059;28;20220;-71
2022/12/01 00:25:32;;;;;;;25.27;18.03;;;;;;;3.76;100.00;98641.44;5094072;28;20221;-70
2022/12/01 00:27:58;;;;;;;27.83;18.00;;;;;;;3.76;100.00;98638.03;5094069;28;20204;-70
2022/12/01 00:30:25;;;;;;;27.33;20.00;;;;;;;3.69;100.00;98640.47;5093890;28;20204;-70
2022/12/01 00:32:51;;;;;;;26.97;17.83;;;;;;;3.61;100.00;98631.75;5093956;28;20196;-70
2022/12/01 00:35:17;;;;;;;23.80;18.40;;;;;;;3.63;100.00;98637.66;5093665;28;20199;-70
2022/12/01 00:37:44;;;;;;;27.00;18.83;;;;;;;3.64;100.00;98634.03;5093557;28;20214;-71
2022/12/01 00:40:11;;;;;;;25.20;17.73;;;;;;;3.81;100.00;98630.47;5092888;28;20211;-70
2022/12/01 00:42:37;;;;;;;28.93;19.13;;;;;;;3.74;100.00;98639.97;5093749;28;20203;-70
2022/12/01 00:45:04;;;;;;;27.93;18.03;;;;;;;3.68;100.00;98635.38;5093806;28;20574;-70
2022/12/01 00:47:31;;;;;;;26.60;17.77;;;;;;;3.81;100.00;98635.72;5093671;28;20226;-70
2022/12/01 00:49:57;;;;;;;25.07;18.10;;;;;;;3.77;100.00;98632.59;5093698;28;20207;-70
2022/12/01 00:52:23;;;;;;;25.67;18.27;;;;;;;3.71;100.00;98633.22;5093542;28;20228;-70
2022/12/01 00:54:50;;;;;;;25.80;18.23;;;;;;;3.63;100.00;98633.25;5093457;28;20199;-70
2022/12/01 00:57:16;;;;;;;26.47;18.10;;;;;;;3.70;100.00;98636.84;5093685;28;20211;-70
2022/12/01 00:59:42;;;;;;;27.57;18.53;;;;;;;3.68;100.00;98636.19;5093654;28;20200;-70
2022/12/01 01:02:09;;;;;;;26.90;17.97;;;;;;;3.76;100.00;98635.38;5093447;28;20278;-70
2022/12/01 01:04:36;;;;;;;24.30;17.40;;;;;;;3.67;100.00;98633.72;5093371;28;20227;-70
2022/12/01 01:07:03;;;;;;;26.03;18.13;;;;;;;3.64;100.00;98640.13;5093336;28;20666;-71
2022/12/01 01:09:31;;;;;;;25.67;17.97;;;;;;;3.78;100.00;98641.28;5093337;28;20216;-70
2022/12/01 01:11:57;;;;;;;23.50;15.97;;;;;;;3.74;100.00;98643.44;5093272;28;20234;-70
2022/12/01 01:14:24;;;;;;;25.60;18.00;;;;;;;3.64;100.00;98636.66;5093063;28;20560;-70
2022/12/01 01:16:50;;;;;;;23.20;16.90;;;;;;;3.64;100.00;98642.75;5093079;28;20746;-70
2022/12/01 01:19:17;;;;;;;25.70;17.03;;;;;;;3.66;100.00;98645.22;5093374;28;20204;-70
2022/12/01 01:21:43;;;;;;;21.77;15.87;;;;;;;3.70;100.00;98641.31;5093397;28;20250;-71
2022/12/01 01:24:10;;;;;;;27.03;17.00;;;;;;;3.53;100.00;98643.03;5093318;28;20230;-70
2022/12/01 01:26:36;;;;;;;22.47;17.20;;;;;;;3.55;100.00;98648.16;5093380;28;20234;-70
2022/12/01 01:29:06;;;;;;;24.17;16.80;;;;;;;3.54;100.00;98649.13;5093322;28;20206;-70
2022/12/01 01:31:33;;;;;;;22.47;16.20;;;;;;;3.59;100.00;98658.19;5092983;28;20655;-70
2022/12/01 01:34:00;;;;;;;23.40;16.00;;;;;;;3.56;100.00;98653.25;5093038;28;20204;-71
2022/12/01 01:36:27;;;;;;;23.00;16.13;;;;;;;3.56;100.00;98658.50;5093314;28;20214;-70
2022/12/01 01:38:54;;;;;;;22.57;15.70;;;;;;;3.57;100.00;98654.09;5093317;28;20210;-70
2022/12/01 01:41:22;;;;;;;21.30;15.57;;;;;;;3.65;100.00;98649.66;5092857;28;20227;-70
2022/12/01 01:43:55;;;;;;;22.83;16.87;;;;;;;3.56;100.00;98661.13;5093160;28;20224;-70
2022/12/01 01:46:27;;;;;;;21.27;15.93;;;;;;;3.65;100.00;98651.47;5093244;28;20298;-70
2022/12/01 01:48:59;;;;;;;20.13;15.23;;;;;;;3.67;100.00;98655.56;5093310;28;20195;-70
2022/12/01 01:51:46;;;;;;;22.67;16.70;;;;;;;3.66;100.00;98658.38;5093875;28;20311;-70
2022/12/01 01:54:18;;;;;;;22.63;16.47;;;;;;;3.56;100.00;98663.78;5096982;28;20200;-70
2022/12/01 01:56:47;;;;;;;23.90;17.07;;;;;;;3.57;100.00;98661.97;5096934;28;20204;-70
2022/12/01 01:59:18;;;;;;;22.57;16.57;;;;;;;3.46;100.00;98660.47;5097663;28;20204;-71
2022/12/01 02:01:50;;;;;;;23.00;17.40;;;;;;;3.40;100.00;98650.59;5096839;28;20224;-70
2022/12/01 02:04:17;;;;;;;22.80;16.43;;;;;;;3.58;100.00;98658.34;5096655;28;20216;-70
2022/12/01 02:06:43;;;;;;;24.60;17.13;;;;;;;3.44;100.00;98659.78;5096307;28;20551;-71
2022/12/01 02:09:12;;;;;;;21.13;16.13;;;;;;;3.50;100.00;98653.91;5096684;28;20204;-70
2022/12/01 02:12:12;;;;;;;21.83;16.13;;;;;;;3.53;100.00;98652.75;5096261;28;20722;-70
2022/12/01 02:14:51;;;;;;;20.10;15.77;;;;;;;3.46;100.00;98649.09;5078703;28;20206;-70
2022/12/01 02:17:22;;;;;;;19.27;14.23;;;;;;;3.56;100.00;98648.00;5096376;28;20184;-70
2022/12/01 02:20:10;;;;;;;21.57;15.13;;;;;;;3.52;100.00;98651.94;5096535;28;20192;-70
2022/12/01 02:22:42;;;;;;;23.50;16.10;;;;;;;3.52;100.00;98651.94;5096097;28;20224;-71
2022/12/01 02:25:19;;;;;;;21.63;15.27;;;;;;;3.50;100.00;98650.44;5096297;28;20224;-70
2022/12/01 02:28:13;;;;;;;21.50;16.00;;;;;;;3.50;100.00;98651.28;5096399;28;20195;-70
2022/12/01 02:31:03;;;;;;;21.67;15.40;;;;;;;3.30;100.00;98642.00;5096199;28;20227;-70
2022/12/01 02:33:37;;;;;;;23.03;16.33;;;;;;;3.36;100.00;98651.06;5077970;28;20549;-71
2022/12/01 02:36:17;;;;;;;22.43;16.13;;;;;;;3.44;100.00;98637.94;5096215;28;20200;-70
2022/12/01 02:38:56;;;;;;;21.83;15.37;;;;;;;3.51;100.00;98644.19;5078559;28;20528;-70
2022/12/01 02:41:41;;;;;;;22.50;15.70;;;;;;;3.46;100.00;98643.84;5096021;28;20227;-71
2022/12/01 02:44:20;;;;;;;19.87;14.60;;;;;;;3.39;100.00;98650.75;5095726;28;20558;-70
2022/12/01 02:47:00;;;;;;;21.13;14.50;;;;;;;3.51;100.00;98644.19;5096103;28;20203;-70
2022/12/01 02:49:31;;;;;;;24.30;14.77;;;;;;;3.34;100.00;98642.53;5096255;28;20192;-70
2022/12/01 02:51:58;;;;;;;22.60;15.63;;;;;;;3.43;100.00;98650.25;5095699;28;20238;-70
2022/12/01 02:54:27;;;;;;;22.80;16.07;;;;;;;3.46;100.00;98649.09;5095854;28;20203;-70
2022/12/01 02:56:54;;;;;;;21.17;15.43;;;;;;;3.31;100.00;98642.84;5095374;28;20214;-70
2022/12/01 02:59:20;;;;;;;22.07;16.20;;;;;;;3.24;100.00;98650.53;5095774;28;20226;-70
2022/12/01 03:01:59;;;;;;;20.13;15.20;;;;;;;3.38;100.00;98649.91;5095637;28;20220;-70
2022/12/01 03:04:56;;;;;;;20.20;14.30;;;;;;;3.40;100.00;98655.84;5094409;28;20688;-70
2022/12/01 03:07:51;;;;;;;24.40;16.50;;;;;;;3.25;100.00;98644.28;5080154;28;20201;-70
2022/12/01 03:10:48;;;;;;;22.97;15.20;;;;;;;3.28;100.00;98643.13;5095184;28;20184;-70
2022/12/01 03:13:42;;;;;;;22.93;15.87;;;;;;;3.23;100.00;98635.75;5095562;28;20283;-71
2022/12/01 03:16:12;;;;;;;22.37;15.37;;;;;;;3.37;100.00;98639.56;5048878;28;20693;-70
2022/12/01 03:18:43;;;;;;;20.37;14.20;;;;;;;3.33;100.00;98635.59;5095958;28;20200;-70
2022/12/01 03:21:29;;;;;;;18.93;13.83;;;;;;;3.38;100.00;98643.81;5095544;28;20239;-70
2022/12/01 03:24:01;;;;;;;20.23;14.30;;;;;;;3.15;100.00;98642.75;5095231;28;20212;-70
2022/12/01 03:26:31;;;;;;;20.17;14.80;;;;;;;3.16;100.00;98639.16;5094953;28;20188;-70
2022/12/01 03:29:09;;;;;;;21.80;14.47;;;;;;;3.21;100.00;98635.06;5094842;28;20616;-70
2022/12/01 03:31:45;;;;;;;20.53;15.23;;;;;;;3.27;100.00;98626.56;5094762;28;20235;-70
2022/12/01 03:34:22;;;;;;;22.73;15.77;;;;;;;3.17;100.00;98635.56;5094748;28;20180;-70
2022/12/01 03:37:01;;;;;;;22.30;16.17;;;;;;;3.07;100.00;98640.13;5094988;28;20767;-70
2022/12/01 03:39:35;;;;;;;20.30;14.53;;;;;;;3.05;100.00;98628.94;5095208;28;20279;-70
2022/12/01 03:42:25;;;;;;;22.07;15.47;;;;;;;3.14;100.00;98636.69;5094855;28;20227;-70
2022/12/01 03:44:55;;;;;;;20.03;14.90;;;;;;;3.18;100.00;98638.03;5094747;28;20215;-70
2022/12/01 03:47:31;;;;;;;20.87;15.27;;;;;;;3.16;100.00;98644.44;5095059;28;20196;-70
2022/12/01 03:49:59;;;;;;;22.50;15.00;;;;;;;3.23;100.00;98642.78;5094696;28;20202;-70
2022/12/01 03:52:57;;;;;;;20.23;15.03;;;;;;;3.11;100.00;98638.81;5094403;28;20238;-71
2022/12/01 03:55:29;;;;;;;23.13;15.67;;;;;;;3.11;100.00;98641.44;5094695;28;20199;-70
2022/12/01 03:58:18;;;;;;;24.47;16.80;;;;;;;3.23;100.00;98642.78;5094253;28;20293;-70
2022/12/01 04:00:48;;;;;;;22.07;15.63;;;;;;;3.15;100.00;98642.75;5094475;28;20228;-70
2022/12/01 04:03:22;;;;;;;24.73;16.07;;;;;;;3.06;100.00;98633.19;5076644;28;20303;-70
2022/12/01 04:05:48;;;;;;;23.20;16.27;;;;;;;3.10;100.00;98637.16;5076950;28;20196;-70
2022/12/01 04:08:15;;;;;;;20.70;14.27;;;;;;;3.14;100.00;98647.22;5094344;28;20210;-70
2022/12/01 04:10:41;;;;;;;25.10;15.97;;;;;;;3.02;100.00;98639.78;5094295;28;20220;-70
2022/12/01 04:13:14;;;;;;;22.60;16.43;;;;;;;3.03;100.00;98636.97;5094238;28;20208;-70
2022/12/01 04:15:41;;;;;;;22.30;16.30;;;;;;;3.07;100.00;98642.75;5094075;28;20548;-70
2022/12/01 04:18:07;;;;;;;21.97;16.30;;;;;;;2.98;100.00;98636.63;5094191;28;20230;-71
2022/12/01 04:20:33;;;;;;;22.57;15.30;;;;;;;3.05;100.00;98635.03;5094098;28;20224;-70
2022/12/01 04:23:00;;;;;;;23.60;16.47;;;;;;;3.02;100.00;98637.16;5094571;28;20207;-70
2022/12/01 04:25:26;;;;;;;21.40;15.30;;;;;;;3.01;100.00;98635.47;5094268;28;20216;-71
2022/12/01 04:27:52;;;;;;;23.17;17.50;;;;;;;2.97;100.00;98634.13;5094033;28;20204;-70
2022/12/01 04:30:19;;;;;;;24.13;16.73;;;;;;;3.05;100.00;98637.66;5093851;28;20215;-71
2022/12/01 04:32:45;;;;;;;25.03;17.10;;;;;;;3.01;100.00;98635.47;5093935;28;20207;-70
2022/12/01 04:35:12;;;;;;;27.33;17.20;;;;;;;3.10;100.00;98639.78;5093682;28;20199;-70
2022/12/01 04:37:39;;;;;;;22.30;15.90;;;;;;;3.12;100.00;98635.22;5093751;28;20566;-70
2022/12/01 04:40:07;;;;;;;24.40;16.87;;;;;;;2.99;100.00;98643.50;5094210;28;20298;-70
2022/12/01 04:42:33;;;;;;;24.20;16.83;;;;;;;3.01;100.00;98635.47;5093625;28;20224;-70
2022/12/01 04:44:59;;;;;;;23.27;17.07;;;;;;;3.05;100.00;98637.66;5093543;28;20223;-70
2022/12/01 04:47:26;;;;;;;22.00;16.30;;;;;;;3.15;100.00;98645.38;5093813;28;20207;-70
2022/12/01 04:49:53;;;;;;;22.03;16.70;;;;;;;3.12;100.00;98643.91;5093613;28;20199;-70
2022/12/01 04:52:19;;;;;;;22.67;16.40;;;;;;;3.12;100.00;98643.91;5093035;28;20598;-70
2022/12/01 04:54:46;;;;;;;23.90;16.73;;;;;;;3.15;100.00;98645.38;5093591;28;20207;-70
2022/12/01 04:57:12;;;;;;;22.00;16.63;;;;;;;3.19;100.00;98641.47;5093535;28;20204;-70
2022/12/01 04:59:38;;;;;;;23.43;17.03;;;;;;;3.22;100.00;98641.16;5094379;28;20204;-70
2022/12/01 05:02:05;;;;;;;20.83;15.57;;;;;;;3.16;100.00;98654.94;5093323;28;20226;-70
2022/12/01 05:04:32;;;;;;;23.20;16.40;;;;;;;3.22;100.00;98646.41;5093350;28;20224;-70
2022/12/01 05:06:59;;;;;;;22.67;16.53;;;;;;;3.16;100.00;98650.47;5092916;28;20629;-70
2022/12/01 05:09:25;;;;;;;23.67;16.70;;;;;;;2.99;100.00;98642.69;5093966;28;20249;-70
2022/12/01 05:11:52;;;;;;;23.67;16.83;;;;;;;2.89;100.00;98636.75;5093310;28;20226;-70
2022/12/01 05:14:18;;;;;;;23.83;17.20;;;;;;;3.00;100.00;98646.97;5092880;28;20200;-70
2022/12/01 05:16:44;;;;;;;26.20;17.43;;;;;;;2.93;100.00;98648.59;5093210;28;20204;-70
2022/12/01 05:21:55;;;;;;;25.37;17.00;;;;;;;2.93;100.00;98646.78;5093218;28;20535;-70
2022/12/01 05:24:21;;;;;;;25.20;16.90;;;;;;;2.94;100.00;98648.41;5092868;28;20228;-70
2022/12/01 05:26:48;;;;;;;26.80;17.60;;;;;;;2.93;100.00;98643.34;5094432;28;20689;-71
2022/12/01 05:29:15;;;;;;;23.27;17.40;;;;;;;3.05;100.00;98650.78;5097325;28;20208;-71
2022/12/01 05:31:41;;;;;;;25.93;18.27;;;;;;;3.04;100.00;98653.56;5096884;28;20230;-71
2022/12/01 05:34:08;;;;;;;23.97;17.47;;;;;;;2.93;100.00;98645.97;5096778;28;20200;-71
2022/12/01 05:36:35;;;;;;;23.67;17.97;;;;;;;3.05;100.00;98656.03;5096526;28;20667;-71
2022/12/01 05:39:01;;;;;;;25.93;17.37;;;;;;;3.18;100.00;98658.22;5096294;28;20674;-71
2022/12/01 05:41:27;;;;;;;26.23;17.53;;;;;;;3.14;100.00;98652.47;5096266;28;20568;-71
2022/12/01 05:43:54;;;;;;;23.63;17.60;;;;;;;3.16;100.00;98655.75;5096280;28;20215;-71
2022/12/01 05:46:20;;;;;;;24.20;17.57;;;;;;;3.19;100.00;98654.59;5096237;28;20204;-71
2022/12/01 05:48:47;;;;;;;25.17;16.63;;;;;;;3.10;100.00;98656.38;5096112;28;20216;-71
2022/12/01 05:51:15;;;;;;;24.93;17.83;;;;;;;3.05;100.00;98655.19;5096186;28;20235;-71
2022/12/01 05:53:42;;;;;;;25.07;18.30;;;;;;;2.99;100.00;98645.31;5096211;28;20200;-71
2022/12/01 05:56:09;;;;;;;26.83;18.23;;;;;;;2.92;100.00;98647.75;5096454;28;20200;-71
2022/12/01 05:58:36;;;;;;;22.27;16.60;;;;;;;3.03;100.00;98655.34;5096636;28;20286;-71
2022/12/01 06:01:02;;;;;;;23.27;17.37;;;;;;;2.93;100.00;98651.22;5096761;28;20224;-71
2022/12/01 06:03:29;;;;;;;26.60;17.70;;;;;;;3.00;100.00;98655.69;5096421;28;20230;-71
2022/12/01 06:05:55;;;;;;;25.30;17.23;;;;;;;3.01;100.00;98659.94;5096113;28;20228;-71
2022/12/01 06:08:21;;;;;;;27.30;18.03;;;;;;;3.11;100.00;98665.09;5095895;28;20303;-70
2022/12/01 06:10:48;;;;;;;25.03;17.63;;;;;;;3.13;100.00;98668.38;5095800;28;20598;-71
2022/12/01 06:13:14;;;;;;;24.50;17.77;;;;;;;2.99;100.00;98658.47;5096035;28;20203;-71
2022/12/01 06:15:41;;;;;;;23.63;17.93;;;;;;;3.03;100.00;98654.53;5096119;28;20199;-71
2022/12/01 06:18:07;;;;;;;25.60;15.97;;;;;;;3.08;100.00;98662.78;5095331;28;20215;-71
2022/12/01 06:20:33;;;;;;;23.57;16.37;;;;;;;2.97;100.00;98655.16;5095302;28;20592;-71
2022/12/01 06:23:00;;;;;;;24.00;16.60;;;;;;;3.04;100.00;98661.44;5095802;28;20200;-71
2022/12/01 06:25:26;;;;;;;24.40;16.20;;;;;;;3.09;100.00;98661.78;5095670;28;20219;-71
2022/12/01 06:27:58;;;;;;;23.70;17.63;;;;;;;2.94;100.00;98668.63;5095964;28;20203;-71
2022/12/01 06:30:25;;;;;;;23.87;17.80;;;;;;;3.05;100.00;98655.19;5095472;28;20207;-71
2022/12/01 06:32:52;;;;;;;26.20;16.33;;;;;;;3.09;100.00;98672.28;5095688;28;20207;-70
2022/12/01 06:35:18;;;;;;;23.50;17.27;;;;;;;3.10;100.00;98666.06;5095423;28;20282;-71
2022/12/01 06:37:44;;;;;;;23.03;16.30;;;;;;;3.11;100.00;98676.41;5094462;28;20218;-71
2022/12/01 06:40:11;;;;;;;23.33;16.33;;;;;;;3.10;100.00;98682.66;5095050;28;20298;-71
2022/12/01 06:42:38;;;;;;;23.53;16.90;;;;;;;2.98;100.00;98681.25;5095046;28;20218;-71
2022/12/01 06:45:05;;;;;;;25.83;18.00;;;;;;;3.00;100.00;98687.19;5095206;28;20224;-71
2022/12/01 06:47:31;;;;;;;23.83;17.63;;;;;;;2.92;100.00;98689.78;5095031;28;20253;-71
2022/12/01 06:49:57;;;;;;;24.70;16.97;;;;;;;3.00;100.00;98686.38;5094974;28;20574;-71
2022/12/01 06:52:24;;;;;;;25.83;17.40;;;;;;;3.00;100.00;98684.56;5094684;28;20253;-70
2022/12/01 06:54:50;;;;;;;28.97;18.00;;;;;;;2.99;100.00;98672.41;5095228;28;20295;-70
2022/12/01 06:57:16;;;;;;;26.33;17.97;;;;;;;3.03;100.00;98680.81;5094813;28;20298;-71
2022/12/01 06:59:43;;;;;;;24.43;17.00;;;;;;;3.09;100.00;98680.16;5095100;28;20208;-71
2022/12/01 07:02:12;;;;;;;25.43;17.77;;;;;;;3.11;100.00;98683.47;5094591;28;20227;-71
2022/12/01 07:04:38;;;;;;;26.10;18.53;;;;;;;2.96;100.00;98680.59;5094765;28;20227;-71
2022/12/01 07:07:06;;;;;;;24.23;17.43;;;;;;;3.06;100.00;98685.72;5094883;28;20203;-71
2022/12/01 07:09:33;;;;;;;24.87;18.57;;;;;;;3.06;100.00;98696.22;5095110;28;20208;-71
2022/12/01 07:11:59;;;;;;;24.47;17.60;;;;;;;2.97;100.00;98686.66;5095193;28;20238;-70
2022/12/01 07:14:26;;;;;;;23.63;17.43;;;;;;;3.02;100.00;98694.94;5094467;28;20204;-71
2022/12/01 07:16:53;;;;;;;26.53;18.47;;;;;;;3.04;100.00;98690.31;5094706;28;20208;-71
2022/12/01 07:19:19;;;;;;;24.37;17.07;;;;;;;3.00;100.00;98699.50;5095300;28;20206;-71
2022/12/01 07:21:46;;;;;;;27.43;18.73;;;;;;;2.98;100.00;98701.47;5094438;28;20219;-71
2022/12/01 07:24:15;;;;;;;25.27;17.97;;;;;;;3.02;100.00;98700.19;5094758;28;20299;-71
2022/12/01 07:26:42;;;;;;;26.30;17.60;;;;;;;3.08;100.00;98691.66;5094338;28;20579;-70
2022/12/01 07:29:10;;;;;;;23.33;17.67;;;;;;;3.05;100.00;98691.97;5094955;28;20204;-70
2022/12/01 07:31:37;;;;;;;28.10;19.03;;;;;;;3.00;100.00;98704.75;5094624;28;20224;-70
2022/12/01 07:34:04;;;;;;;25.33;17.83;;;;;;;3.14;100.00;98688.41;5094780;28;20200;-70
2022/12/01 07:36:31;;;;;;;25.10;18.03;;;;;;;3.23;100.00;98704.06;5094136;28;20561;-70
2022/12/01 07:38:57;;;;;;;25.73;17.13;;;;;;;3.01;100.00;98698.50;5094529;28;20203;-70
2022/12/01 07:41:23;;;;;;;25.23;17.37;;;;;;;3.04;100.00;98699.03;5094286;28;20226;-70
2022/12/01 07:43:50;;;;;;;23.43;17.40;;;;;;;3.06;100.00;98706.75;5094454;28;20300;-70
2022/12/01 07:46:20;;;;;;;21.50;16.23;;;;;;;3.14;100.00;98698.91;5094203;28;20224;-70
2022/12/01 07:48:47;;;;;;;23.97;16.93;;;;;;;3.26;100.00;98698.47;5093882;28;20204;-70
2022/12/01 07:51:16;;;;;;;24.87;17.77;;;;;;;3.06;100.00;98706.75;5093906;28;20235;-70
2022/12/01 07:53:43;;;;;;;26.53;17.43;;;;;;;3.12;100.00;98698.25;5094077;28;20211;-70
2022/12/01 07:56:09;;;;;;;24.43;17.00;;;;;;;3.03;100.00;98701.81;5094294;28;20200;-70
2022/12/01 07:58:36;;;;;;;25.73;17.77;;;;;;;3.09;100.00;98706.44;5094323;28;20215;-70
2022/12/01 08:01:11;;;;;;;24.90;17.03;;;;;;;3.22;100.00;98696.34;5093906;28;20310;-70
2022/12/01 08:03:38;;;;;;;22.17;16.13;;;;;;;3.12;100.00;98708.75;5094218;28;20187;-70
2022/12/01 08:06:05;;;;;;;24.97;17.03;;;;;;;3.12;100.00;98714.03;5094286;28;20228;-70
2022/12/01 08:08:34;;;;;;;22.97;16.63;;;;;;;3.21;100.00;98705.19;5093970;28;20220;-70
2022/12/01 08:11:03;;;;;;;23.33;16.77;;;;;;;3.25;100.00;98706.53;5093713;28;20220;-70
2022/12/01 08:13:29;;;;;;;22.40;15.70;;;;;;;3.31;100.00;98711.16;5093573;28;20666;-71
2022/12/01 08:15:56;;;;;;;25.20;16.53;;;;;;;3.37;100.00;98716.59;5093909;28;20200;-70
2022/12/01 08:18:23;;;;;;;24.00;17.03;;;;;;;3.43;100.00;98715.16;5093635;28;20203;-70
2022/12/01 08:20:50;;;;;;;23.97;15.57;;;;;;;3.50;100.00;98730.13;5093780;28;20220;-70
2022/12/01 08:23:16;;;;;;;23.73;16.87;;;;;;;3.49;100.00;98727.66;5093710;28;20200;-70
2022/12/01 08:25:43;;;;;;;25.03;16.20;;;;;;;3.24;100.00;98724.09;5093224;28;20215;-70
2022/12/01 08:28:09;;;;;;;22.50;16.80;;;;;;;3.20;100.00;98727.19;5093227;28;20704;-70
2022/12/01 08:30:37;;;;;;;22.23;16.57;;;;;;;3.24;100.00;98728.50;5093188;28;20295;-70
2022/12/01 08:33:03;;;;;;;21.00;16.10;;;;;;;3.38;100.00;98734.00;5093373;28;20538;-70
2022/12/01 08:35:29;;;;;;;22.90;16.23;;;;;;;3.40;100.00;98728.59;5093408;28;20196;-70
2022/12/01 08:37:56;;;;;;;26.03;16.00;;;;;;;3.35;100.00;98730.88;5093399;28;20544;-71
2022/12/01 08:40:22;;;;;;;22.63;15.17;;;;;;;3.37;100.00;98736.78;5093444;28;20204;-70
2022/12/01 08:42:51;;;;;;;20.27;15.43;;;;;;;3.50;100.00;98734.56;5093073;28;20210;-70
2022/12/01 08:45:17;;;;;;;19.83;14.63;;;;;;;3.57;100.00;98733.75;5093402;28;20220;-70
2022/12/01 08:47:44;;;;;;;20.30;15.00;;;;;;;3.54;100.00;98733.25;5093433;28;20215;-70
2022/12/01 08:50:10;;;;;;;19.40;15.23;;;;;;;3.48;100.00;98737.34;5092982;28;20204;-70
2022/12/01 08:52:37;;;;;;;21.23;15.97;;;;;;;3.28;100.00;98735.09;5093082;28;20320;-70
2022/12/01 08:55:04;;;;;;;22.07;14.30;;;;;;;3.44;100.00;98737.81;5093113;28;20200;-70
2022/12/01 08:57:31;;;;;;;20.80;15.63;;;;;;;3.50;100.00;98740.66;5093365;28;20199;-71
2022/12/01 08:59:57;;;;;;;21.50;15.47;;;;;;;3.38;100.00;98734.00;5093201;28;20230;-70
2022/12/01 09:02:24;;;;;;;19.57;14.70;;;;;;;3.54;100.00;98728.00;5092172;28;20231;-70
2022/12/01 09:04:51;;;;;;;21.03;15.53;;;;;;;3.60;100.00;98727.34;5092598;28;20675;-71
2022/12/01 09:07:19;;;;;;;22.17;16.40;;;;;;;3.63;100.00;98727.88;5093467;28;20210;-70
2022/12/01 09:09:46;;;;;;;21.37;16.07;;;;;;;3.38;100.00;98733.19;5093257;28;20200;-70
2022/12/01 09:12:13;;;;;;;20.50;15.73;;;;;;;3.47;100.00;98732.22;5093043;28;20228;-70
2022/12/01 09:14:43;;;;;;;21.20;15.57;;;;;;;3.48;100.00;98734.72;5093374;28;20218;-70
2022/12/01 09:17:09;;;;;;;21.27;15.90;;;;;;;3.49;100.00;98739.00;5093259;28;20248;-70
2022/12/01 09:19:36;;;;;;;19.27;15.47;;;;;;;3.54;100.00;98741.16;5093569;28;20230;-70
2022/12/01 09:22:02;;;;;;;25.07;16.63;;;;;;;3.38;100.00;98734.00;5093019;28;20231;-70
2022/12/01 09:24:29;;;;;;;22.67;16.43;;;;;;;3.34;100.00;98734.50;5092968;28;20208;-70
2022/12/01 09:26:57;;;;;;;22.40;14.97;;;;;;;3.36;100.00;98727.28;5092772;28;20667;-70
2022/12/01 09:29:24;;;;;;;22.67;16.53;;;;;;;3.46;100.00;98727.97;5093047;28;20242;-70
2022/12/01 09:31:51;;;;;;;20.37;15.33;;;;;;;3.43;100.00;98725.66;5092965;28;20227;-70
2022/12/01 09:34:19;;;;;;;22.10;16.63;;;;;;;3.61;100.00;98734.28;5092786;28;20562;-70
2022/12/01 09:36:47;;;;;;;21.67;15.60;;;;;;;3.78;100.00;98739.44;5092754;28;20208;-70
2022/12/01 09:39:19;;;;;;;19.50;15.33;;;;;;;3.79;100.00;98753.41;5092714;28;20667;-70
2022/12/01 09:42:07;;;;;;;20.77;14.67;;;;;;;3.71;100.00;98741.03;5092954;28;20438;-70
2022/12/01 09:44:55;;;;;;;21.60;15.90;;;;;;;3.51;100.00;98734.41;5092547;28;20210;-70
2022/12/01 09:47:33;;;;;;;21.87;15.70;;;;;;;3.63;100.00;98734.94;5092709;28;20687;-70
2022/12/01 09:50:02;;;;;;;21.93;15.53;;;;;;;3.61;100.00;98734.28;5092438;28;20562;-71
2022/12/01 09:52:33;;;;;;;21.57;15.67;;;;;;;3.70;100.00;98730.69;5092521;28;20242;-70
2022/12/01 09:55:01;;;;;;;21.43;16.03;;;;;;;3.82;100.00;98734.66;5093565;28;20188;-70
2022/12/01 09:57:35;;;;;;;20.33;15.37;;;;;;;3.74;100.00;98737.25;5092726;28;20212;-70
2022/12/01 10:00:07;;;;;;;21.27;15.50;;;;;;;3.80;100.00;98741.91;5092368;28;20202;-70
2022/12/01 10:02:39;;;;;;;19.50;14.53;;;;;;;3.83;100.00;98739.78;5092597;28;20224;-70
2022/12/01 10:05:21;;;;;;;19.70;15.83;;;;;;;3.73;100.00;98733.00;5092759;28;20577;-70
2022/12/01 10:08:12;;;;;;;21.80;14.20;;;;;;;3.73;100.00;98738.25;5092921;28;20188;-70
2022/12/01 10:10:43;;;;;;;20.37;15.53;;;;;;;3.66;100.00;98732.81;5093065;28;20334;-70
2022/12/01 10:13:18;;;;;;;22.13;16.07;;;;;;;3.71;100.00;98724.44;5094325;28;20245;-70
2022/12/01 10:15:53;;;;;;;24.43;16.23;;;;;;;3.67;100.00;98723.94;5096508;28;20187;-70
2022/12/01 10:18:42;;;;;;;21.20;15.47;;;;;;;3.74;100.00;98714.44;5095793;28;20208;-70
2022/12/01 10:21:19;;;;;;;22.30;16.03;;;;;;;3.65;100.00;98714.56;5096168;28;20753;-70
2022/12/01 10:23:57;;;;;;;21.40;15.87;;;;;;;3.65;100.00;98715.38;5096849;28;20194;-70
2022/12/01 10:26:56;;;;;;;20.97;14.80;;;;;;;3.84;100.00;98709.84;5096669;28;20225;-70
2022/12/01 10:30:03;;;;;;;21.30;16.20;;;;;;;3.79;100.00;98706.06;5095827;28;20207;-70
2022/12/01 10:32:45;;;;;;;21.83;15.37;;;;;;;3.78;100.00;98707.03;5081861;28;20223;-70
2022/12/01 10:35:16;;;;;;;21.03;15.67;;;;;;;3.75;100.00;98700.28;5079551;28;20184;-70
2022/12/01 10:37:44;;;;;;;21.07;16.23;;;;;;;3.76;100.00;98703.75;5096064;28;20189;-70
2022/12/01 10:40:14;;;;;;;22.70;15.83;;;;;;;3.69;100.00;98693.06;5095477;28;20200;-70
2022/12/01 10:42:46;;;;;;;22.50;15.97;;;;;;;3.81;100.00;98698.84;5096203;28;20204;-70
2022/12/01 10:45:21;;;;;;;21.00;16.00;;;;;;;3.91;100.00;98692.47;5095594;28;20238;-70
2022/12/01 10:48:08;;;;;;;21.67;16.30;;;;;;;3.86;100.00;98696.53;5095734;28;20559;-70
2022/12/01 10:50:35;;;;;;;20.90;15.90;;;;;;;3.69;100.00;98694.84;5095074;28;20247;-70
2022/12/01 10:53:03;;;;;;;22.80;15.47;;;;;;;3.93;100.00;98690.47;5095325;28;20639;-70
2022/12/01 10:55:34;;;;;;;22.40;15.73;;;;;;;4.01;100.00;98687.84;5095688;28;20319;-70
2022/12/01 10:58:05;;;;;;;20.30;15.10;;;;;;;3.91;100.00;98687.19;5095220;28;20188;-70
2022/12/01 11:00:38;;;;;;;22.63;16.13;;;;;;;3.98;100.00;98687.38;5094953;28;20188;-70
2022/12/01 11:03:05;;;;;;;23.97;15.20;;;;;;;3.90;100.00;98684.72;5095830;28;20188;-70
2022/12/01 11:05:38;;;;;;;20.83;15.87;;;;;;;3.89;100.00;98678.63;5095232;28;20227;-70
2022/12/01 11:08:04;;;;;;;22.60;16.30;;;;;;;3.62;100.00;98686.78;5095207;28;20188;-70
2022/12/01 11:10:37;;;;;;;21.17;15.80;;;;;;;3.88;100.00;98673.56;5095622;28;20215;-71
2022/12/01 11:13:28;;;;;;;21.87;15.57;;;;;;;3.77;100.00;98673.84;5095049;28;20226;-71
2022/12/01 11:16:00;;;;;;;22.03;15.03;;;;;;;3.97;100.00;98673.38;5083020;28;20249;-71
2022/12/01 11:18:34;;;;;;;22.40;16.00;;;;;;;3.99;100.00;98667.97;5095059;28;20192;-71
2022/12/01 11:21:14;;;;;;;22.33;16.03;;;;;;;3.93;100.00;98663.38;5094776;28;20219;-71
2022/12/01 11:23:48;;;;;;;23.30;16.27;;;;;;;4.06;100.00;98664.50;5093887;28;20203;-71
2022/12/01 11:26:24;;;;;;;19.70;15.00;;;;;;;4.27;100.00;98666.66;5094922;28;20223;-71
2022/12/01 11:29:43;;;;;;;20.77;15.20;;;;;;;4.11;100.00;98661.41;5094898;28;20530;-71
2022/12/01 11:32:23;;;;;;;21.97;15.70;;;;;;;4.02;100.00;98657.94;5053594;28;20236;-71
2022/12/01 11:34:54;;;;;;;20.27;15.27;;;;;;;3.90;100.00;98655.78;5094426;28;20192;-71